Time;durP1;ratioP1;P1;durP2;ratioP2;P2;SDS_P1;SDS_P2;PMS_P1;PMS_P2;Temp;Humidity;BMP_temperature;BMP_pressure;BME280_temperature;BME280_humidity;BME280_pressure;Samples;Min_cycle;Max_cycle;Signal;HPM_P1;HPM_P2
2023/04/23 00:00:13;;;;;;;7.83;2.77;;;;;;;12.13;54.92;100221.05;1720577;83;21078;-57
2023/04/23 00:02:45;;;;;;;7.20;2.92;;;;;;;12.11;54.72;100214.40;1720877;83;21026;-57
2023/04/23 00:05:16;;;;;;;8.30;2.90;;;;;;;12.11;54.60;100220.42;1720762;83;21529;-58
2023/04/23 00:07:46;;;;;;;4.33;2.47;;;;;;;12.08;54.57;100220.31;1720732;83;21130;-58
2023/04/23 00:10:15;;;;;;;6.60;2.90;;;;;;;12.04;54.58;100221.27;1720892;83;21074;-59
2023/04/23 00:12:44;;;;;;;5.42;2.77;;;;;;;12.02;54.68;100221.16;1720811;83;21447;-58
2023/04/23 00:15:14;;;;;;;4.22;2.60;;;;;;;11.97;54.77;100223.70;1720780;83;21509;-58
2023/04/23 00:17:43;;;;;;;6.22;2.80;;;;;;;11.94;54.88;100221.38;1720892;83;21071;-60
2023/04/23 00:20:12;;;;;;;5.33;2.70;;;;;;;11.91;54.88;100225.91;1721058;83;21027;-59
2023/04/23 00:22:41;;;;;;;4.35;2.60;;;;;;;11.87;55.10;100228.23;1721101;83;21066;-59
2023/04/23 00:25:10;;;;;;;6.72;2.92;;;;;;;11.85;55.13;100228.13;1698452;84;21099;-58
2023/04/23 00:27:39;;;;;;;6.72;2.65;;;;;;;11.82;55.23;100227.17;1698508;83;21064;-58
2023/04/23 00:30:08;;;;;;;5.75;2.33;;;;;;;11.81;55.34;100233.20;1713132;83;21031;-58
2023/04/23 00:32:38;;;;;;;4.97;2.60;;;;;;;11.79;55.36;100232.56;1720820;83;21063;-58
2023/04/23 00:35:08;;;;;;;11.33;3.17;;;;;;;11.77;55.52;100232.42;1720869;83;21074;-59
2023/04/23 00:37:37;;;;;;;4.67;2.60;;;;;;;11.75;55.78;100229.36;1721267;83;21054;-58
2023/04/23 00:40:08;;;;;;;8.58;2.77;;;;;;;11.73;55.87;100234.21;1721353;83;21058;-58
2023/04/23 00:42:38;;;;;;;5.67;2.52;;;;;;;11.71;56.03;100222.59;1720773;83;21063;-57
2023/04/23 00:45:07;;;;;;;5.42;2.67;;;;;;;11.70;56.08;100231.89;1720746;83;20991;-57
2023/04/23 00:47:37;;;;;;;6.40;2.90;;;;;;;11.69;56.06;100230.69;1720866;83;21011;-58
2023/04/23 00:50:08;;;;;;;4.97;2.65;;;;;;;11.67;56.00;100236.39;1720870;83;21012;-59
2023/04/23 00:52:39;;;;;;;6.12;2.55;;;;;;;11.64;55.91;100232.69;1720692;83;21078;-58
2023/04/23 00:55:09;;;;;;;5.33;2.70;;;;;;;11.60;55.94;100238.28;1720729;83;21419;-57
2023/04/23 00:57:38;;;;;;;7.85;2.60;;;;;;;11.59;55.97;100236.59;1720898;83;21067;-58
2023/04/23 01:00:11;;;;;;;4.28;2.60;;;;;;;11.57;55.99;100245.55;1720987;83;21078;-58
2023/04/23 01:02:41;;;;;;;6.40;2.60;;;;;;;11.56;56.08;100239.75;1720854;83;21101;-58
2023/04/23 01:05:12;;;;;;;5.72;2.50;;;;;;;11.57;56.29;100240.06;1720773;83;21604;-59
2023/04/23 01:07:43;;;;;;;5.08;2.77;;;;;;;11.56;56.54;100241.64;1720823;83;20999;-58
2023/04/23 01:10:12;;;;;;;6.40;2.30;;;;;;;11.53;56.37;100241.53;1720860;83;21027;-59
2023/04/23 01:12:43;;;;;;;6.33;2.87;;;;;;;11.51;56.46;100238.16;1720833;83;21082;-58
2023/04/23 01:15:12;;;;;;;10.18;4.40;;;;;;;11.50;56.40;100232.34;1720754;83;21066;-59
2023/04/23 01:17:41;;;;;;;9.25;4.10;;;;;;;11.49;56.06;100240.26;1721027;83;21070;-59
2023/04/23 01:20:11;;;;;;;8.20;3.40;;;;;;;11.48;55.91;100238.57;1720771;83;21266;-59
2023/04/23 01:22:40;;;;;;;7.90;3.55;;;;;;;11.47;56.06;100234.14;1720874;83;21051;-58
2023/04/23 01:25:09;;;;;;;10.25;4.30;;;;;;;11.47;56.32;100239.63;1720758;83;21039;-58
2023/04/23 01:27:38;;;;;;;12.88;4.25;;;;;;;11.47;56.45;100240.99;1698789;83;21078;-59
2023/04/23 01:30:08;;;;;;;10.25;4.60;;;;;;;11.48;56.51;100244.06;1720850;83;21065;-58
2023/04/23 01:32:37;;;;;;;11.10;4.42;;;;;;;11.48;56.56;100241.31;1704868;83;21067;-58
2023/04/23 01:35:07;;;;;;;10.10;4.05;;;;;;;11.44;56.51;100240.88;1721032;83;21055;-58
2023/04/23 01:37:37;;;;;;;12.25;4.50;;;;;;;11.45;56.60;100245.84;1721813;83;21086;-58
2023/04/23 01:40:08;;;;;;;9.48;4.05;;;;;;;11.44;56.66;100249.64;1723271;83;21086;-58
2023/04/23 01:42:38;;;;;;;12.43;4.45;;;;;;;11.42;56.71;100244.89;1723277;83;21162;-57
2023/04/23 01:45:08;;;;;;;10.95;4.25;;;;;;;11.39;56.78;100237.07;1723088;83;21027;-59
2023/04/23 01:47:40;;;;;;;6.80;3.08;;;;;;;11.39;57.01;100248.05;1722105;83;21032;-57
2023/04/23 01:50:09;;;;;;;6.78;2.98;;;;;;;11.37;56.74;100246.87;1721089;83;21447;-58
2023/04/23 01:52:38;;;;;;;8.03;3.27;;;;;;;11.35;56.39;100245.39;1720989;83;21075;-59
2023/04/23 01:55:08;;;;;;;7.55;3.15;;;;;;;11.33;56.96;100241.48;1721217;83;21015;-59
2023/04/23 01:57:37;;;;;;;8.10;2.75;;;;;;;11.34;57.13;100251.41;1721163;83;21079;-58
2023/04/23 02:00:10;;;;;;;5.78;2.55;;;;;;;11.34;57.22;100243.18;1720761;83;21060;-57
2023/04/23 02:02:43;;;;;;;7.90;2.98;;;;;;;11.33;57.55;100242.02;1721149;83;21055;-58
2023/04/23 02:05:17;;;;;;;6.60;2.90;;;;;;;11.33;57.57;100243.38;1720988;83;21082;-58
2023/04/23 02:07:47;;;;;;;6.10;2.17;;;;;;;11.34;57.42;100249.19;1721059;83;21071;-58
2023/04/23 02:10:18;;;;;;;5.15;2.55;;;;;;;11.30;56.96;100249.28;1720729;83;21082;-59
2023/04/23 02:12:47;;;;;;;5.25;2.50;;;;;;;11.30;57.01;100254.25;1721149;83;21466;-58
2023/04/23 02:15:15;;;;;;;4.85;2.52;;;;;;;11.29;57.08;100246.22;1720862;83;21027;-58
2023/04/23 02:17:45;;;;;;;6.42;2.52;;;;;;;11.28;57.19;100252.76;1720858;82;21111;-58
2023/04/23 02:20:14;;;;;;;5.65;2.72;;;;;;;11.27;57.15;100253.28;1720803;83;21315;-58
2023/04/23 02:22:43;;;;;;;5.70;2.55;;;;;;;11.28;57.47;100255.50;1721020;83;20999;-57
2023/04/23 02:25:14;;;;;;;6.50;2.50;;;;;;;11.26;57.60;100257.60;1720843;83;21079;-58
2023/04/23 02:27:44;;;;;;;4.25;2.30;;;;;;;11.24;57.78;100250.95;1720749;83;21515;-60
2023/04/23 02:30:13;;;;;;;5.35;2.30;;;;;;;11.25;58.07;100249.91;1720895;83;21027;-59
2023/04/23 02:32:42;;;;;;;8.90;2.60;;;;;;;11.24;58.21;100254.22;1720788;83;21043;-58
2023/04/23 02:35:11;;;;;;;5.45;2.45;;;;;;;11.20;58.33;100255.16;1720811;83;21062;-57
2023/04/23 02:37:41;;;;;;;7.95;2.95;;;;;;;11.20;58.45;100259.80;1721080;83;21090;-58
2023/04/23 02:40:11;;;;;;;5.00;2.75;;;;;;;11.19;58.58;100259.48;1720763;83;21075;-58
2023/04/23 02:42:40;;;;;;;7.60;2.90;;;;;;;11.18;58.75;100268.23;1720870;83;21148;-58
2023/04/23 02:45:11;;;;;;;6.58;3.27;;;;;;;11.19;58.96;100262.22;1720762;83;21479;-58
2023/04/23 02:47:40;;;;;;;8.43;3.75;;;;;;;11.20;59.16;100268.02;1720833;83;21063;-58
2023/04/23 02:50:09;;;;;;;7.58;4.03;;;;;;;11.21;59.17;100272.45;1720908;83;21540;-57
2023/04/23 02:52:40;;;;;;;9.30;4.50;;;;;;;11.21;59.12;100266.97;1720730;83;21459;-57
2023/04/23 02:55:09;;;;;;;10.25;4.62;;;;;;;11.19;59.35;100267.70;1720799;83;21071;-58
2023/04/23 02:57:38;;;;;;;10.43;4.85;;;;;;;11.21;59.28;100269.72;1720764;83;21443;-57
2023/04/23 03:00:11;;;;;;;8.90;4.50;;;;;;;11.23;59.07;100273.10;1720918;83;21082;-57
2023/04/23 03:02:41;;;;;;;14.18;5.80;;;;;;;11.20;59.00;100265.28;1720684;83;21490;-58
2023/04/23 03:05:11;;;;;;;10.35;5.30;;;;;;;11.18;58.73;100268.23;1721003;83;21095;-57
2023/04/23 03:07:40;;;;;;;14.93;6.25;;;;;;;11.19;58.84;100269.08;1720757;83;21051;-57
2023/04/23 03:10:10;;;;;;;15.18;5.97;;;;;;;11.20;58.72;100272.98;1698035;83;21082;-58
2023/04/23 03:12:39;;;;;;;17.70;7.58;;;;;;;11.21;58.88;100272.45;1720842;83;21007;-59
2023/04/23 03:15:09;;;;;;;14.03;6.60;;;;;;;11.21;58.54;100278.79;1720795;83;21054;-58
2023/04/23 03:17:38;;;;;;;13.28;6.50;;;;;;;11.24;58.70;100284.39;1705352;83;21115;-57
2023/04/23 03:20:10;;;;;;;12.00;6.12;;;;;;;11.27;58.66;100281.23;1700837;84;21080;-58
2023/04/23 03:22:40;;;;;;;13.22;6.42;;;;;;;11.29;58.49;100280.50;1701007;83;21028;-58
2023/04/23 03:25:09;;;;;;;11.38;6.12;;;;;;;11.30;58.31;100284.41;1684136;84;21044;-58
2023/04/23 03:27:39;;;;;;;13.60;6.35;;;;;;;11.32;58.20;100291.06;1700651;84;21043;-56
2023/04/23 03:30:09;;;;;;;13.40;6.20;;;;;;;11.32;58.18;100290.54;1700702;84;21024;-59
2023/04/23 03:32:38;;;;;;;14.73;5.92;;;;;;;11.34;57.95;100293.08;1700959;84;21068;-57
2023/04/23 03:35:08;;;;;;;10.78;5.78;;;;;;;11.35;57.59;100290.12;1700790;84;21028;-58
2023/04/23 03:37:38;;;;;;;14.03;6.25;;;;;;;11.38;57.44;100293.83;1700763;84;21036;-58
2023/04/23 03:40:09;;;;;;;14.13;6.30;;;;;;;11.42;57.44;100299.75;1700849;84;21031;-59
2023/04/23 03:42:39;;;;;;;12.45;6.05;;;;;;;11.44;57.56;100303.14;1700990;84;21112;-59
2023/04/23 03:45:10;;;;;;;10.45;6.17;;;;;;;11.47;57.40;100301.36;1683957;84;21012;-58
2023/04/23 03:47:39;;;;;;;15.68;6.22;;;;;;;11.50;57.02;100305.06;1700836;84;21067;-58
2023/04/23 03:50:09;;;;;;;10.60;5.33;;;;;;;11.52;56.81;100296.62;1701024;84;21056;-59
2023/04/23 03:52:39;;;;;;;11.22;5.53;;;;;;;11.55;56.61;100299.80;1700942;84;21136;-57
2023/04/23 03:55:10;;;;;;;15.40;5.62;;;;;;;11.58;56.58;100305.40;1700705;84;21056;-58
2023/04/23 03:57:40;;;;;;;11.25;5.80;;;;;;;11.60;56.62;100305.51;1700334;83;21028;-57
2023/04/23 04:00:26;;;;;;;11.00;5.25;;;;;;;11.63;56.63;100311.11;1701087;84;21012;-58
2023/04/23 04:02:55;;;;;;;11.93;5.78;;;;;;;11.66;56.61;100307.42;1701037;84;21075;-58
2023/04/23 04:05:26;;;;;;;11.00;5.75;;;;;;;11.70;56.54;100308.73;1700931;84;21448;-58
2023/04/23 04:07:56;;;;;;;10.90;5.33;;;;;;;11.75;56.44;100314.97;1700695;84;21072;-58
2023/04/23 04:10:26;;;;;;;10.85;4.90;;;;;;;11.79;56.41;100319.03;1700510;84;20996;-59
2023/04/23 04:12:55;;;;;;;14.38;5.40;;;;;;;11.85;56.22;100324.22;1700659;84;21100;-58
2023/04/23 04:15:25;;;;;;;11.90;4.95;;;;;;;11.89;55.95;100320.00;1700679;84;21092;-58
2023/04/23 04:17:54;;;;;;;14.50;5.28;;;;;;;11.95;55.76;100320.54;1688618;81;21083;-58
2023/04/23 04:20:22;;;;;;;15.15;5.45;;;;;;;11.99;55.46;100322.66;1681568;84;21009;-59
2023/04/23 04:22:51;;;;;;;12.35;5.33;;;;;;;12.05;55.46;100323.72;1682336;84;21080;-57
2023/04/23 04:25:27;;;;;;;11.05;4.78;;;;;;;12.11;55.44;100324.78;1690733;84;21521;-58
2023/04/23 04:27:51;;;;;;;12.07;4.40;;;;;;;12.17;55.15;100330.28;1682085;84;21554;-57
2023/04/23 04:30:23;;;;;;;9.70;4.80;;;;;;;12.23;55.17;100329.44;1682241;84;21072;-58
2023/04/23 04:32:52;;;;;;;10.50;5.05;;;;;;;12.30;55.07;100326.70;1683901;84;21098;-58
2023/04/23 04:35:22;;;;;;;11.38;4.72;;;;;;;12.37;54.90;100326.20;1681610;84;21290;-56
2023/04/23 04:37:53;;;;;;;10.60;4.80;;;;;;;12.45;54.65;100334.23;1679225;85;21532;-60
2023/04/23 04:40:22;;;;;;;15.70;4.97;;;;;;;12.50;54.36;100337.19;1680029;85;21087;-59
2023/04/23 04:42:51;;;;;;;9.60;5.25;;;;;;;12.57;54.23;100342.69;1680752;85;21067;-57
2023/04/23 04:45:20;;;;;;;9.50;4.75;;;;;;;12.62;53.95;100337.40;1682963;83;21508;-57
2023/04/23 04:47:51;;;;;;;11.35;4.80;;;;;;;12.66;54.16;100334.54;1682702;85;21056;-58
2023/04/23 04:50:20;;;;;;;8.88;4.53;;;;;;;12.75;53.98;100338.76;1682120;85;21036;-57
2023/04/23 04:52:49;;;;;;;10.25;4.72;;;;;;;12.81;54.00;100337.91;1685641;84;21152;-59
2023/04/23 04:55:18;;;;;;;16.52;4.80;;;;;;;12.88;53.70;100340.11;1681633;84;21057;-57
2023/04/23 04:57:47;;;;;;;9.60;4.50;;;;;;;12.94;53.44;100348.87;1687125;84;21070;-57
2023/04/23 05:00:28;;;;;;;8.28;4.12;;;;;;;13.00;53.36;100342.55;1686749;84;21466;-58
2023/04/23 05:02:57;;;;;;;6.10;3.50;;;;;;;13.08;53.16;100342.00;1652149;86;21034;-58
2023/04/23 05:05:28;;;;;;;8.78;3.75;;;;;;;13.14;52.64;100343.36;1651199;86;21035;-58
2023/04/23 05:08:01;;;;;;;8.13;3.95;;;;;;;13.22;52.10;100347.81;1625128;87;21055;-57
2023/04/23 05:10:30;;;;;;;4.70;3.02;;;;;;;13.29;52.01;100350.02;1685947;85;21095;-57
2023/04/23 05:12:59;;;;;;;7.75;3.67;;;;;;;13.36;51.23;100354.97;1683858;84;21448;-58
2023/04/23 05:15:28;;;;;;;5.65;2.87;;;;;;;13.43;51.02;100361.30;1686059;83;21035;-58
2023/04/23 05:17:58;;;;;;;5.83;2.95;;;;;;;13.50;51.02;100362.64;1685428;84;21070;-58
2023/04/23 05:20:27;;;;;;;7.17;2.70;;;;;;;13.56;50.32;100359.02;1670522;85;21026;-58
2023/04/23 05:22:58;;;;;;;4.83;2.80;;;;;;;13.61;50.15;100360.05;1671281;86;21037;-59
2023/04/23 05:25:27;;;;;;;5.90;2.90;;;;;;;13.68;49.93;100369.69;1674603;86;21057;-58
2023/04/23 05:27:56;;;;;;;5.90;2.58;;;;;;;13.75;49.69;100368.28;1672843;86;21010;-57
2023/04/23 05:30:25;;;;;;;5.92;2.60;;;;;;;13.82;49.41;100374.59;1672867;86;21069;-58
2023/04/23 05:32:54;;;;;;;5.75;3.10;;;;;;;13.89;49.22;100381.77;1672862;86;21038;-59
2023/04/23 05:35:22;;;;;;;4.58;2.92;;;;;;;13.95;48.99;100377.28;1672805;86;21002;-59
2023/04/23 05:37:51;;;;;;;7.08;3.37;;;;;;;14.02;48.50;100382.22;1673147;86;21069;-57
2023/04/23 05:40:20;;;;;;;5.92;3.42;;;;;;;14.05;48.40;100380.41;1672915;86;21021;-58
2023/04/23 05:42:51;;;;;;;5.80;3.30;;;;;;;14.09;48.35;100383.03;1673174;86;21438;-56
2023/04/23 05:45:20;;;;;;;5.10;2.90;;;;;;;14.15;48.18;100377.16;1672972;86;21045;-57
2023/04/23 05:47:50;;;;;;;5.22;3.40;;;;;;;14.21;48.07;100382.63;1672716;86;21046;-57
2023/04/23 05:50:20;;;;;;;5.83;2.92;;;;;;;14.25;48.09;100383.88;1672905;86;21010;-58
2023/04/23 05:52:49;;;;;;;6.03;3.47;;;;;;;14.31;48.21;100378.58;1673006;85;21010;-58
2023/04/23 05:55:19;;;;;;;7.12;3.37;;;;;;;14.35;48.28;100382.05;1672798;86;21022;-56
2023/04/23 05:57:48;;;;;;;5.95;3.52;;;;;;;14.39;48.17;100385.20;1672686;86;20997;-58
2023/04/23 06:00:17;;;;;;;7.20;3.33;;;;;;;14.41;48.14;100394.94;1672899;86;20986;-58
2023/04/23 06:02:46;;;;;;;8.35;3.75;;;;;;;14.42;48.20;100387.00;1673125;86;21006;-58
2023/04/23 06:05:16;;;;;;;10.40;3.60;;;;;;;14.46;48.49;100386.87;1672898;86;21041;-58
2023/04/23 06:07:48;;;;;;;5.55;3.05;;;;;;;14.51;48.52;100393.09;1672945;86;21438;-59
2023/04/23 06:10:17;;;;;;;5.90;3.45;;;;;;;14.51;49.07;100393.09;1673115;86;21102;-57
2023/04/23 06:12:46;;;;;;;7.30;2.95;;;;;;;14.51;49.00;100395.84;1672872;86;20981;-58
2023/04/23 06:15:15;;;;;;;4.70;2.87;;;;;;;14.53;48.88;100398.69;1666868;86;21053;-58
2023/04/23 06:17:44;;;;;;;6.28;3.22;;;;;;;14.60;48.86;100398.64;1663580;85;21542;-58
2023/04/23 06:20:13;;;;;;;10.35;3.37;;;;;;;14.69;48.66;100404.72;1696631;84;21064;-58
2023/04/23 06:22:42;;;;;;;5.05;2.70;;;;;;;14.74;48.52;100400.75;1698092;83;21091;-57
2023/04/23 06:25:10;;;;;;;6.65;2.90;;;;;;;14.82;48.13;100406.84;1698806;84;21060;-58
2023/04/23 06:27:39;;;;;;;5.95;3.02;;;;;;;14.89;47.70;100399.34;1698643;84;21119;-57
2023/04/23 06:30:11;;;;;;;6.00;3.15;;;;;;;14.97;47.56;100396.86;1697892;84;21036;-58
2023/04/23 06:32:41;;;;;;;8.75;3.12;;;;;;;15.09;47.40;100402.48;1698534;84;21052;-60
2023/04/23 06:35:10;;;;;;;5.75;3.37;;;;;;;15.23;46.99;100401.27;1698822;84;21016;-58
2023/04/23 06:37:39;;;;;;;7.83;3.33;;;;;;;15.44;46.34;100407.73;1698495;84;21032;-59
2023/04/23 06:40:10;;;;;;;8.25;3.70;;;;;;;15.67;45.53;100404.88;1698876;84;21047;-59
2023/04/23 06:42:40;;;;;;;5.87;3.50;;;;;;;15.93;44.78;100404.55;1698533;84;21084;-58
2023/04/23 06:45:19;;;;;;;7.12;3.90;;;;;;;16.24;43.54;100401.25;1697742;84;21028;-59
2023/04/23 06:47:49;;;;;;;8.53;4.25;;;;;;;16.58;42.01;100404.69;1698585;84;21137;-58
2023/04/23 06:50:19;;;;;;;7.30;3.55;;;;;;;16.80;41.28;100405.84;1698409;84;21551;-58
2023/04/23 06:52:48;;;;;;;7.80;3.90;;;;;;;16.97;41.31;100404.62;1698529;84;21032;-59
2023/04/23 06:55:17;;;;;;;8.03;3.52;;;;;;;17.02;40.91;100405.30;1698802;84;21080;-59
2023/04/23 06:57:46;;;;;;;6.30;3.72;;;;;;;17.08;40.67;100405.72;1698551;84;21107;-59
2023/04/23 07:00:15;;;;;;;5.37;3.72;;;;;;;17.14;39.64;100405.30;1698820;84;21417;-58
2023/04/23 07:02:46;;;;;;;8.98;3.72;;;;;;;17.14;39.96;100398.38;1698687;84;21436;-59
2023/04/23 07:05:16;;;;;;;10.55;3.90;;;;;;;17.30;39.22;100406.80;1698582;84;21025;-59
2023/04/23 07:07:45;;;;;;;7.37;3.77;;;;;;;17.61;38.99;100405.59;1698773;84;21048;-57
2023/04/23 07:10:14;;;;;;;7.70;3.30;;;;;;;18.00;37.92;100409.48;1698749;84;21080;-59
2023/04/23 07:12:44;;;;;;;7.20;3.45;;;;;;;18.50;37.62;100405.20;1698564;84;21080;-58
2023/04/23 07:15:13;;;;;;;6.53;3.77;;;;;;;18.97;35.68;100401.62;1698331;84;21056;-59
2023/04/23 07:17:42;;;;;;;6.20;3.50;;;;;;;19.28;34.75;100392.67;1703432;83;21094;-60
2023/04/23 07:20:11;;;;;;;6.65;3.60;;;;;;;19.65;33.84;100404.64;1718977;83;21003;-58
2023/04/23 07:22:41;;;;;;;6.85;3.67;;;;;;;19.98;33.38;100398.11;1719034;83;21031;-59
2023/04/23 07:25:10;;;;;;;6.95;3.77;;;;;;;20.24;32.40;100397.89;1696586;83;21510;-59
2023/04/23 07:27:38;;;;;;;5.83;3.58;;;;;;;20.29;32.94;100402.11;1708943;83;21076;-59
2023/04/23 07:30:08;;;;;;;6.60;3.50;;;;;;;20.19;32.34;100400.06;1718916;83;21059;-60
2023/04/23 07:32:38;;;;;;;6.12;3.55;;;;;;;20.05;32.52;100397.91;1718916;83;21962;-59
2023/04/23 07:35:10;;;;;;;6.17;3.50;;;;;;;19.94;32.22;100401.96;1718731;83;21067;-59
2023/04/23 07:37:39;;;;;;;8.10;3.58;;;;;;;19.82;32.20;100399.86;1718913;83;20995;-58
2023/04/23 07:40:09;;;;;;;3.77;2.77;;;;;;;19.67;32.14;100405.78;1718837;83;21007;-57
2023/04/23 07:42:38;;;;;;;4.95;2.75;;;;;;;19.53;31.79;100405.31;1718546;83;21107;-58
2023/04/23 07:45:10;;;;;;;4.78;3.10;;;;;;;19.41;31.12;100406.75;1718756;83;21027;-58
2023/04/23 07:47:39;;;;;;;4.53;2.72;;;;;;;19.33;30.82;100410.80;1718841;83;21456;-58
2023/04/23 07:50:09;;;;;;;4.85;3.00;;;;;;;19.21;31.18;100407.84;1718791;83;21492;-58
2023/04/23 07:52:38;;;;;;;3.83;2.80;;;;;;;19.10;31.45;100405.45;1718699;83;21424;-58
2023/04/23 07:55:08;;;;;;;4.85;2.45;;;;;;;19.05;31.50;100410.92;1718759;83;21066;-59
2023/04/23 07:57:37;;;;;;;5.37;2.20;;;;;;;19.02;30.65;100407.27;1718399;83;21096;-57
2023/04/23 08:00:08;;;;;;;4.37;2.50;;;;;;;19.04;30.46;100411.17;1719000;83;21035;-59
2023/04/23 08:02:41;;;;;;;8.10;2.92;;;;;;;19.09;29.37;100407.09;1718880;83;21023;-58
2023/04/23 08:05:10;;;;;;;5.05;2.90;;;;;;;19.19;30.36;100405.86;1718697;83;21463;-59
2023/04/23 08:07:40;;;;;;;9.40;3.95;;;;;;;19.52;31.19;100396.13;1718757;83;21039;-59
2023/04/23 08:10:17;;;;;;;4.58;2.85;;;;;;;19.97;31.12;100398.38;1718618;83;21148;-59
2023/04/23 08:12:46;;;;;;;4.65;2.40;;;;;;;20.42;30.83;100391.14;1720550;82;21013;-59
2023/04/23 08:15:15;;;;;;;4.35;2.55;;;;;;;20.84;27.65;100399.64;1690267;84;21099;-59
2023/04/23 08:17:44;;;;;;;6.15;2.60;;;;;;;21.23;27.94;100398.86;1710443;84;21022;-58
2023/04/23 08:20:13;;;;;;;4.67;2.62;;;;;;;21.61;26.84;100389.36;1722225;82;21093;-57
2023/04/23 08:22:42;;;;;;;5.25;1.90;;;;;;;21.90;26.50;100383.36;1726386;82;21066;-60
2023/04/23 08:25:12;;;;;;;2.95;2.15;;;;;;;22.20;25.13;100382.69;1753829;82;20966;-58
2023/04/23 08:27:41;;;;;;;4.70;2.20;;;;;;;22.45;25.80;100382.17;1744304;82;21046;-58
2023/04/23 08:30:10;;;;;;;4.00;2.05;;;;;;;22.76;25.63;100387.27;1726051;83;20999;-59
2023/04/23 08:32:40;;;;;;;5.60;2.50;;;;;;;22.91;25.46;100383.66;1726139;83;21055;-59
2023/04/23 08:35:09;;;;;;;4.87;2.30;;;;;;;23.06;24.93;100375.83;1719823;83;21651;-58
2023/04/23 08:37:38;;;;;;;5.92;2.47;;;;;;;23.23;24.66;100369.94;1742296;82;21034;-58
2023/04/23 08:40:09;;;;;;;31.25;3.30;;;;;;;23.37;24.48;100378.02;1743772;82;21030;-58
2023/04/23 08:43:01;;;;;;;5.60;2.30;;;;;;;23.45;24.83;100369.08;1743824;82;21443;-60
2023/04/23 08:45:30;;;;;;;5.58;2.30;;;;;;;23.45;24.81;100371.88;1743793;82;21427;-58
2023/04/23 08:47:59;;;;;;;4.25;2.60;;;;;;;23.47;24.10;100368.23;1743854;82;21459;-59
2023/04/23 08:50:31;;;;;;;3.20;1.80;;;;;;;23.61;24.41;100373.53;1743952;82;21426;-58
2023/04/23 08:53:03;;;;;;;4.70;1.80;;;;;;;23.77;24.39;100373.48;1736594;82;21114;-58
2023/04/23 08:55:33;;;;;;;2.90;1.60;;;;;;;23.61;22.75;100367.94;1716345;83;21059;-57
2023/04/23 08:58:05;;;;;;;2.55;1.60;;;;;;;23.32;22.82;100366.84;1716706;83;21083;-57
2023/04/23 09:00:34;;;;;;;2.72;1.85;;;;;;;22.96;23.30;100372.48;1717772;83;21039;-58
2023/04/23 09:03:03;;;;;;;7.47;2.10;;;;;;;22.62;23.37;100371.30;1696448;83;21027;-57
2023/04/23 09:05:33;;;;;;;2.52;1.67;;;;;;;22.27;23.72;100373.48;1718602;83;21463;-58
2023/04/23 09:08:02;;;;;;;3.22;1.72;;;;;;;21.96;23.78;100373.89;1717728;83;21175;-58
2023/04/23 09:10:31;;;;;;;5.42;2.20;;;;;;;21.58;24.15;100373.17;1716497;83;21107;-56
2023/04/23 09:13:00;;;;;;;3.92;2.40;;;;;;;21.26;25.06;100370.45;1711906;83;20997;-57
2023/04/23 09:15:30;;;;;;;4.90;2.25;;;;;;;21.04;25.88;100374.73;1705508;84;21065;-58
2023/04/23 09:17:59;;;;;;;6.25;2.20;;;;;;;20.78;26.32;100374.22;1706313;84;21171;-59
2023/04/23 09:20:29;;;;;;;3.80;2.25;;;;;;;20.59;26.62;100370.99;1697866;83;21058;-58
2023/04/23 09:22:58;;;;;;;3.90;2.10;;;;;;;20.42;26.72;100370.27;1715226;83;21123;-59
2023/04/23 09:25:27;;;;;;;5.45;2.20;;;;;;;20.22;26.75;100363.91;1702878;84;21048;-58
2023/04/23 09:27:55;;;;;;;8.40;2.67;;;;;;;20.02;27.20;100374.79;1716038;83;21012;-59
2023/04/23 09:30:26;;;;;;;3.35;2.00;;;;;;;19.91;27.38;100370.50;1673946;83;21481;-56
2023/04/23 09:32:55;;;;;;;5.58;2.40;;;;;;;19.80;27.01;100370.64;1717456;83;21076;-56
2023/04/23 09:35:24;;;;;;;4.12;2.20;;;;;;;19.63;27.31;100359.58;1717769;83;21041;-57
2023/04/23 09:37:52;;;;;;;3.37;2.22;;;;;;;19.49;27.54;100370.18;1678936;83;21110;-57
2023/04/23 09:40:23;;;;;;;8.20;2.55;;;;;;;19.40;27.64;100366.16;1717546;83;21132;-59
2023/04/23 09:42:53;;;;;;;4.90;1.85;;;;;;;19.25;27.90;100364.01;1717693;83;21060;-57
2023/04/23 09:45:26;;;;;;;3.25;1.70;;;;;;;19.15;28.13;100358.86;1717428;83;21127;-56
2023/04/23 09:47:56;;;;;;;7.42;2.27;;;;;;;19.08;27.97;100361.81;1717683;83;21112;-58
2023/04/23 09:50:35;;;;;;;12.98;3.45;;;;;;;19.01;27.98;100363.92;1717626;83;21057;-56
2023/04/23 09:53:08;;;;;;;5.95;2.42;;;;;;;18.94;28.11;100359.09;1717388;83;21049;-56
2023/04/23 09:55:38;;;;;;;6.28;2.83;;;;;;;18.90;28.65;100359.31;1717375;83;21105;-57
2023/04/23 09:58:12;;;;;;;4.58;2.70;;;;;;;18.89;28.84;100367.34;1717645;83;21051;-58
2023/04/23 10:00:43;;;;;;;6.92;4.25;;;;;;;18.82;28.78;100357.77;1717569;83;21073;-57
2023/04/23 10:03:26;;;;;;;9.73;3.20;;;;;;;18.80;28.69;100367.44;1717503;83;20997;-56
2023/04/23 10:05:56;;;;;;;5.75;2.30;;;;;;;18.76;29.11;100360.71;1720049;83;21639;-57
2023/04/23 10:08:27;;;;;;;6.45;2.58;;;;;;;18.70;28.92;100359.79;1719846;83;21078;-57
2023/04/23 10:10:56;;;;;;;6.35;2.70;;;;;;;18.64;29.03;100360.80;1720259;83;21082;-57
2023/04/23 10:13:27;;;;;;;6.42;2.35;;;;;;;18.63;29.41;100363.27;1695198;83;21039;-57
2023/04/23 10:15:56;;;;;;;3.77;2.42;;;;;;;18.64;29.92;100367.19;1720671;83;21460;-56
2023/04/23 10:18:26;;;;;;;3.52;2.30;;;;;;;18.65;29.63;100359.70;1718448;82;21150;-57
2023/04/23 10:20:55;;;;;;;3.98;2.25;;;;;;;18.66;29.56;100360.84;1720753;83;21130;-56
2023/04/23 10:23:24;;;;;;;4.85;2.00;;;;;;;18.69;29.56;100364.50;1698645;83;21058;-57
2023/04/23 10:25:55;;;;;;;4.78;2.20;;;;;;;18.70;29.51;100354.23;1720764;83;21107;-58
2023/04/23 10:28:27;;;;;;;4.35;2.45;;;;;;;18.74;29.60;100360.97;1697768;83;21120;-57
2023/04/23 10:30:55;;;;;;;5.87;3.00;;;;;;;18.77;29.54;100362.39;1720053;83;21074;-58
2023/04/23 10:33:25;;;;;;;6.40;2.00;;;;;;;18.78;29.08;100358.53;1720333;83;21048;-57
2023/04/23 10:35:56;;;;;;;4.17;2.17;;;;;;;18.73;29.19;100354.28;1719926;83;21061;-57
2023/04/23 10:38:27;;;;;;;5.37;2.20;;;;;;;18.69;29.17;100352.55;1720088;83;21041;-55
2023/04/23 10:40:56;;;;;;;4.95;2.10;;;;;;;18.66;29.08;100351.67;1719978;83;21029;-58
2023/04/23 10:43:24;;;;;;;4.53;2.70;;;;;;;18.62;29.35;100356.89;1719969;83;21040;-57
2023/04/23 10:45:53;;;;;;;5.55;2.33;;;;;;;18.57;29.26;100351.77;1721738;82;21067;-56
2023/04/23 10:48:22;;;;;;;4.08;2.15;;;;;;;18.50;29.41;100350.54;1726749;81;21151;-58
2023/04/23 10:50:57;;;;;;;6.62;2.55;;;;;;;18.48;29.52;100350.50;1734156;82;21019;-57
2023/04/23 10:53:28;;;;;;;4.33;2.70;;;;;;;18.47;29.12;100343.27;1748764;82;21067;-57
2023/04/23 10:56:06;;;;;;;5.33;2.87;;;;;;;18.45;29.62;100343.52;1703209;83;21027;-56
2023/04/23 10:58:51;;;;;;;5.00;2.75;;;;;;;18.45;29.14;100343.52;1720363;83;21439;-57
2023/04/23 11:01:20;;;;;;;4.50;2.80;;;;;;;18.46;29.36;100346.59;1720322;83;21003;-58
2023/04/23 11:03:51;;;;;;;4.33;2.70;;;;;;;18.45;29.40;100344.91;1690994;85;21063;-58
2023/04/23 11:06:49;;;;;;;4.00;2.25;;;;;;;18.47;29.39;100341.33;1671110;85;21569;-57
2023/04/23 11:09:43;;;;;;;4.08;2.47;;;;;;;18.44;29.44;100339.60;1675172;84;21438;-59
2023/04/23 11:12:30;;;;;;;4.65;2.75;;;;;;;18.45;29.48;100341.29;1691993;85;21078;-56
2023/04/23 11:14:59;;;;;;;6.25;2.37;;;;;;;18.44;29.79;100335.44;1691817;84;21548;-58
2023/04/23 11:17:38;;;;;;;4.12;2.58;;;;;;;18.40;28.90;100340.66;1691889;85;21106;-58
2023/04/23 11:20:14;;;;;;;4.72;2.50;;;;;;;18.39;29.05;100347.30;1678481;83;21028;-57
2023/04/23 11:22:47;;;;;;;9.13;3.83;;;;;;;18.37;28.94;100340.61;1699699;83;21064;-57
2023/04/23 11:25:22;;;;;;;5.50;3.10;;;;;;;18.37;29.32;100341.99;1708554;84;21050;-56
2023/04/23 11:27:52;;;;;;;3.98;2.72;;;;;;;18.36;29.47;100333.38;1696016;84;21059;-58
2023/04/23 11:30:28;;;;;;;4.65;2.47;;;;;;;18.40;29.58;100335.10;1680747;85;21130;-57
2023/04/23 11:32:58;;;;;;;6.25;2.45;;;;;;;18.43;29.23;100340.70;1682464;85;21107;-57
2023/04/23 11:35:30;;;;;;;5.17;2.55;;;;;;;18.47;29.21;100337.17;1674389;85;21008;-60
2023/04/23 11:37:58;;;;;;;5.33;2.40;;;;;;;18.50;29.17;100335.28;1682618;84;21084;-57